ΕΜΥ, Εθνική Μετεωρολογική Υπηρεσία - Δελτία Καιρού, Προγνώσεις

ΑΕΡΟΝΑΥΤΙΛΙΑ

GREEK AIRPORTS CODES

TAF LGST 250800Z 2509/2518 32022G32KT 9999 FEW018 SCT030 PROB30 TEMPO 2509/2512 RA FEW018 BKN030=

EUROPEAN AIRPORTS CODES

LFPO 250800Z 17004KT 9999 FEW016 BKN260 06/04 Q1016 NOSIG=